Time;durP1;ratioP1;P1;durP2;ratioP2;P2;SDS_P1;SDS_P2;PMS_P1;PMS_P2;Temp;Humidity;BMP_temperature;BMP_pressure;BME280_temperature;BME280_humidity;BME280_pressure;Samples;Min_cycle;Max_cycle;Signal;HPM_P1;HPM_P2
2021/05/26 00:00:59;;;;;;;2.15;1.60;;;;;;;6.57;72.10;96342.53;5015770;28;20021;-53
2021/05/26 00:03:25;;;;;;;1.73;1.63;;;;;;;6.58;72.56;96338.97;5015882;28;20025;-50
2021/05/26 00:05:51;;;;;;;2.15;2.05;;;;;;;6.60;72.03;96331.00;5014163;28;20025;-54
2021/05/26 00:08:29;;;;;;;2.50;1.98;;;;;;;6.61;71.97;96337.09;5011161;28;20023;-52
2021/05/26 00:10:58;;;;;;;3.08;1.77;;;;;;;6.51;72.38;96327.22;5015081;28;20029;-51
2021/05/26 00:13:24;;;;;;;3.72;2.20;;;;;;;6.40;73.35;96322.69;5010907;28;20459;-52
2021/05/26 00:15:50;;;;;;;2.10;1.90;;;;;;;6.36;73.81;96328.25;5008079;28;20053;-52
2021/05/26 00:18:16;;;;;;;2.20;2.10;;;;;;;6.33;74.46;96331.06;5013617;28;20021;-54
2021/05/26 00:20:43;;;;;;;2.00;1.90;;;;;;;6.27;74.15;96325.25;5012903;28;20085;-52
2021/05/26 00:23:09;;;;;;;1.98;1.88;;;;;;;6.24;73.65;96325.47;5012457;28;20071;-54
2021/05/26 00:25:34;;;;;;;1.77;1.67;;;;;;;6.23;74.28;96321.19;5014166;28;20108;-52
2021/05/26 00:28:00;;;;;;;2.53;1.88;;;;;;;6.17;74.09;96318.97;5012130;28;20025;-50
2021/05/26 00:30:33;;;;;;;3.47;1.90;;;;;;;6.11;73.76;96308.91;4998912;28;20484;-54
2021/05/26 00:32:59;;;;;;;2.22;2.13;;;;;;;6.08;74.74;96312.56;5005319;28;20101;-52
2021/05/26 00:35:25;;;;;;;2.50;1.85;;;;;;;6.05;74.81;96314.50;5002767;28;20049;-51
2021/05/26 00:37:51;;;;;;;2.03;1.70;;;;;;;5.99;74.69;96327.00;5009686;28;20386;-52
2021/05/26 00:40:17;;;;;;;1.85;1.75;;;;;;;5.96;74.95;96319.38;5007402;28;20029;-52
2021/05/26 00:42:43;;;;;;;3.25;1.70;;;;;;;5.93;75.04;96324.81;5008784;28;20025;-53
2021/05/26 00:45:10;;;;;;;5.60;1.60;;;;;;;5.95;74.81;96320.31;5006181;28;20682;-52
2021/05/26 00:47:38;;;;;;;1.92;1.83;;;;;;;6.00;74.66;96318.22;5011218;28;20030;-51
2021/05/26 00:50:04;;;;;;;3.75;2.15;;;;;;;6.02;74.27;96311.16;5010800;28;20028;-52
2021/05/26 00:52:30;;;;;;;3.35;1.80;;;;;;;5.99;74.15;96310.50;5011284;28;20067;-51
2021/05/26 00:54:55;;;;;;;1.70;1.70;;;;;;;5.87;75.02;96323.41;5012573;28;20033;-50
2021/05/26 00:57:21;;;;;;;2.15;1.70;;;;;;;5.83;75.39;96319.31;5006344;28;20025;-51
2021/05/26 00:59:46;;;;;;;1.95;1.77;;;;;;;5.77;75.07;96318.84;5004208;28;20018;-51
2021/05/26 01:02:12;;;;;;;1.95;1.60;;;;;;;5.84;75.36;96322.75;5012751;28;20022;-55
2021/05/26 01:04:37;;;;;;;2.08;1.70;;;;;;;5.83;75.15;96315.84;5011444;28;20013;-55
2021/05/26 01:07:03;;;;;;;2.95;1.80;;;;;;;5.77;75.46;96316.25;5012775;28;20022;-50
2021/05/26 01:09:28;;;;;;;1.77;1.60;;;;;;;5.76;75.24;96302.38;5012525;28;20042;-53
2021/05/26 01:11:54;;;;;;;1.83;1.63;;;;;;;5.85;75.06;96300.91;5001542;28;20038;-52
2021/05/26 01:14:20;;;;;;;1.80;1.70;;;;;;;5.82;75.49;96308.94;5015170;28;20049;-53
2021/05/26 01:16:45;;;;;;;1.73;1.63;;;;;;;5.80;74.94;96314.28;5010649;28;20087;-51
2021/05/26 01:19:14;;;;;;;1.67;1.58;;;;;;;5.72;75.62;96303.47;5011753;28;20102;-51
2021/05/26 01:21:39;;;;;;;1.83;1.73;;;;;;;5.71;75.66;96313.09;5009106;28;20029;-54
2021/05/26 01:24:05;;;;;;;1.70;1.60;;;;;;;5.68;75.69;96313.28;5015441;28;20450;-50
2021/05/26 01:26:31;;;;;;;2.22;2.00;;;;;;;5.61;76.87;96311.16;5008422;28;20060;-54
2021/05/26 01:28:57;;;;;;;1.98;1.80;;;;;;;5.58;76.71;96304.34;5008060;28;20395;-50
2021/05/26 01:31:22;;;;;;;3.92;1.80;;;;;;;5.53;77.00;96303.78;5012970;28;20201;-54
2021/05/26 01:33:48;;;;;;;1.98;1.88;;;;;;;5.52;76.72;96308.16;5011787;28;20083;-51
2021/05/26 01:36:13;;;;;;;2.58;1.70;;;;;;;5.54;76.44;96301.09;5008952;28;20026;-52
2021/05/26 01:38:39;;;;;;;2.08;1.80;;;;;;;5.54;77.00;96287.19;5015635;28;20053;-54
2021/05/26 01:41:04;;;;;;;1.63;1.52;;;;;;;5.48;77.35;96293.63;5015412;28;20034;-51
2021/05/26 01:43:31;;;;;;;1.77;1.67;;;;;;;5.40;77.06;96293.28;5013594;28;20501;-52
2021/05/26 01:45:59;;;;;;;2.25;1.70;;;;;;;5.33;76.70;96292.81;5022581;28;20126;-52
2021/05/26 01:48:24;;;;;;;1.55;1.52;;;;;;;5.39;76.41;96296.81;5009007;28;20029;-50
2021/05/26 01:50:50;;;;;;;1.95;1.50;;;;;;;5.42;75.82;96292.25;5012462;28;20482;-52
2021/05/26 01:53:16;;;;;;;2.45;1.92;;;;;;;5.44;75.97;96290.38;5010553;28;20565;-50
2021/05/26 01:55:41;;;;;;;1.90;1.80;;;;;;;5.49;76.08;96281.41;5003840;28;20029;-51
2021/05/26 01:58:08;;;;;;;1.95;1.85;;;;;;;5.49;76.14;96282.25;4999686;28;20104;-51
2021/05/26 02:00:39;;;;;;;5.78;1.95;;;;;;;5.51;76.32;96282.97;5013500;28;20482;-53
2021/05/26 02:03:04;;;;;;;1.60;1.50;;;;;;;5.48;76.54;96279.75;5014113;28;20026;-51
2021/05/26 02:05:30;;;;;;;2.17;1.65;;;;;;;5.36;76.88;96276.13;5014182;28;20022;-52
2021/05/26 02:07:56;;;;;;;1.98;1.65;;;;;;;5.36;76.74;96276.94;5015321;28;20053;-53
2021/05/26 02:12:21;;;;;;;1.77;1.67;;;;;;;5.38;76.96;96280.28;5023344;28;20374;-52
2021/05/26 02:13:07;;;;;;;2.17;1.88;;;;;;;5.27;77.20;96277.53;5015173;28;20034;-52
2021/05/26 02:15:32;;;;;;;1.77;1.67;;;;;;;5.34;76.78;96278.81;5014936;28;20084;-53
2021/05/26 02:17:58;;;;;;;1.80;1.70;;;;;;;5.39;76.61;96268.91;5015346;28;20030;-51
2021/05/26 02:20:23;;;;;;;2.78;1.92;;;;;;;5.44;76.31;96274.72;5013667;28;20261;-50
2021/05/26 02:22:49;;;;;;;2.58;1.70;;;;;;;5.45;76.75;96270.31;5011899;28;20018;-54
2021/05/26 02:25:15;;;;;;;2.55;1.92;;;;;;;5.40;76.01;96270.59;5009056;28;20521;-53
2021/05/26 02:27:40;;;;;;;1.77;1.67;;;;;;;5.29;76.53;96271.25;5008975;28;20079;-53
2021/05/26 02:30:06;;;;;;;1.50;1.50;;;;;;;5.25;77.22;96269.78;5014515;28;20052;-51
2021/05/26 02:32:32;;;;;;;1.60;1.50;;;;;;;5.26;77.01;96262.78;5018983;28;20030;-50
2021/05/26 02:34:57;;;;;;;2.03;1.70;;;;;;;5.25;77.49;96264.56;5018932;28;20042;-51
2021/05/26 02:37:23;;;;;;;3.45;1.83;;;;;;;5.24;77.23;96259.44;5014462;28;20537;-50
2021/05/26 02:39:49;;;;;;;2.65;1.73;;;;;;;5.20;77.39;96257.97;5014912;28;20383;-51
2021/05/26 02:42:14;;;;;;;3.30;1.75;;;;;;;5.14;78.25;96252.16;5014801;28;20112;-51
2021/05/26 02:44:40;;;;;;;3.53;1.88;;;;;;;5.11;78.49;96249.75;5014139;28;20080;-50
2021/05/26 02:47:05;;;;;;;2.30;1.90;;;;;;;5.14;77.92;96256.56;5018205;28;20022;-53
2021/05/26 02:49:31;;;;;;;2.10;1.90;;;;;;;5.13;77.75;96249.66;5014633;28;21117;-50
2021/05/26 02:51:56;;;;;;;3.15;2.13;;;;;;;5.07;78.16;96250.88;5002542;28;20123;-50
2021/05/26 02:54:22;;;;;;;1.80;1.70;;;;;;;5.06;78.19;96246.59;5014581;28;20014;-50
2021/05/26 02:56:48;;;;;;;3.33;1.88;;;;;;;5.03;78.15;96244.16;4997877;28;20038;-55
2021/05/26 02:59:14;;;;;;;2.00;1.80;;;;;;;4.99;78.25;96245.28;5004873;28;20072;-53
2021/05/26 03:01:40;;;;;;;2.88;2.00;;;;;;;4.98;78.35;96246.22;5015790;28;20021;-52
2021/05/26 03:04:05;;;;;;;3.90;1.92;;;;;;;5.01;77.63;96251.25;5017266;28;20627;-52
2021/05/26 03:06:32;;;;;;;1.73;1.63;;;;;;;5.08;77.34;96247.31;5026302;28;20025;-50
2021/05/26 03:08:57;;;;;;;1.90;1.80;;;;;;;5.10;77.44;96248.06;5007067;28;20015;-52
2021/05/26 03:11:23;;;;;;;1.80;1.70;;;;;;;5.08;77.10;96257.78;5006262;28;20505;-51
2021/05/26 03:13:48;;;;;;;2.00;1.90;;;;;;;5.12;76.91;96248.81;5007600;28;20026;-50
2021/05/26 03:16:14;;;;;;;3.03;1.83;;;;;;;5.13;77.04;96253.09;5024313;28;20026;-51
2021/05/26 03:18:40;;;;;;;1.90;1.77;;;;;;;5.15;77.10;96255.63;5011871;28;20559;-50
2021/05/26 03:21:07;;;;;;;2.60;1.90;;;;;;;5.14;77.30;96246.13;5006162;28;20037;-51
2021/05/26 03:23:33;;;;;;;3.08;2.10;;;;;;;5.13;76.99;96257.50;5006373;28;20042;-51
2021/05/26 03:25:58;;;;;;;1.85;1.75;;;;;;;5.04;77.36;96256.28;5005947;28;20037;-51
2021/05/26 03:28:24;;;;;;;1.90;1.80;;;;;;;5.00;77.43;96258.22;5016823;28;20030;-51
2021/05/26 03:30:49;;;;;;;1.95;1.85;;;;;;;4.92;78.04;96257.03;5011768;28;20024;-53
2021/05/26 03:33:16;;;;;;;1.98;1.88;;;;;;;4.87;78.20;96255.53;5016348;28;20026;-52
2021/05/26 03:35:42;;;;;;;2.40;1.88;;;;;;;4.83;79.38;96258.41;5004996;28;20065;-50
2021/05/26 03:38:09;;;;;;;2.05;1.80;;;;;;;4.74;79.57;96254.59;5012490;28;20113;-50
2021/05/26 03:40:36;;;;;;;1.90;1.80;;;;;;;4.72;79.65;96248.63;5007263;28;20037;-50
2021/05/26 03:43:03;;;;;;;1.92;1.60;;;;;;;4.71;79.30;96254.78;5020961;28;20565;-51
2021/05/26 03:45:29;;;;;;;2.85;2.20;;;;;;;4.70;78.90;96248.72;5016370;28;20045;-52
2021/05/26 03:47:56;;;;;;;1.90;1.80;;;;;;;4.71;78.85;96252.16;5017371;28;20029;-51
2021/05/26 03:50:22;;;;;;;4.50;2.00;;;;;;;4.70;79.08;96258.31;5014378;28;20022;-50
2021/05/26 03:52:48;;;;;;;2.35;1.90;;;;;;;4.71;80.13;96249.56;5011646;28;20029;-50
2021/05/26 03:55:19;;;;;;;2.20;2.00;;;;;;;4.67;79.71;96259.34;5013655;28;20030;-52
2021/05/26 03:57:46;;;;;;;5.35;2.33;;;;;;;4.70;79.22;96259.16;5013723;28;20460;-53
2021/05/26 04:00:14;;;;;;;2.10;2.00;;;;;;;4.75;79.11;96255.44;5005358;28;20467;-54
2021/05/26 04:02:40;;;;;;;2.38;2.20;;;;;;;4.74;79.15;96257.19;5003135;28;20096;-50
2021/05/26 04:05:06;;;;;;;1.90;1.80;;;;;;;4.78;78.90;96252.63;5013259;28;20017;-51
2021/05/26 04:07:32;;;;;;;5.68;2.10;;;;;;;4.92;77.86;96250.03;5016992;28;20479;-52
2021/05/26 04:09:58;;;;;;;2.70;1.85;;;;;;;4.96;77.10;96255.91;5011205;28;20038;-52
2021/05/26 04:12:28;;;;;;;2.45;2.13;;;;;;;4.96;76.98;96248.91;5012033;28;20030;-51
2021/05/26 04:14:54;;;;;;;3.83;2.22;;;;;;;4.96;77.13;96250.69;5012488;28;20052;-51
2021/05/26 04:17:20;;;;;;;2.30;2.10;;;;;;;4.94;77.52;96249.94;5017253;28;20030;-53
2021/05/26 04:19:46;;;;;;;3.03;2.45;;;;;;;4.93;78.74;96250.88;5014616;28;20105;-51
2021/05/26 04:22:12;;;;;;;5.35;2.22;;;;;;;4.82;78.73;96257.59;5007410;28;20113;-52
2021/05/26 04:24:38;;;;;;;2.60;2.40;;;;;;;4.87;78.09;96252.94;5011266;28;20177;-53
2021/05/26 04:27:03;;;;;;;2.20;2.00;;;;;;;4.88;80.09;96248.56;5004836;28;20053;-52
2021/05/26 04:29:29;;;;;;;2.50;2.30;;;;;;;4.85;79.81;96252.19;5015379;28;20028;-53
2021/05/26 04:31:58;;;;;;;3.72;2.67;;;;;;;4.83;79.63;96259.25;5027641;28;20486;-51
2021/05/26 04:34:24;;;;;;;3.67;2.30;;;;;;;4.81;79.02;96255.06;5015685;28;20025;-50
2021/05/26 04:36:50;;;;;;;3.35;2.20;;;;;;;4.80;79.53;96256.84;5015796;28;20060;-55
2021/05/26 04:39:16;;;;;;;2.15;2.05;;;;;;;4.77;79.69;96254.44;5016809;28;20053;-53
2021/05/26 04:41:41;;;;;;;3.83;2.40;;;;;;;4.81;79.42;96257.66;5022744;28;20033;-50
2021/05/26 04:44:07;;;;;;;2.65;2.45;;;;;;;4.84;78.85;96257.47;5011694;28;20026;-53
2021/05/26 04:46:32;;;;;;;2.42;2.17;;;;;;;4.90;78.49;96256.28;5016563;28;20046;-53
2021/05/26 04:48:58;;;;;;;2.85;2.65;;;;;;;4.91;78.48;96253.59;5010777;28;20022;-51
2021/05/26 04:51:24;;;;;;;5.05;2.83;;;;;;;4.88;80.41;96249.38;5010490;28;20026;-53
2021/05/26 04:53:50;;;;;;;4.05;2.50;;;;;;;4.90;79.58;96256.28;5009900;28;20165;-52
2021/05/26 04:56:15;;;;;;;9.07;2.70;;;;;;;4.86;80.42;96256.47;5011054;28;20026;-53
2021/05/26 04:58:42;;;;;;;3.95;2.30;;;;;;;4.90;80.27;96256.28;5017266;28;20029;-50
2021/05/26 05:01:07;;;;;;;3.28;2.55;;;;;;;5.13;80.26;96255.72;5016147;28;20029;-52
2021/05/26 05:03:34;;;;;;;4.60;2.38;;;;;;;5.29;79.71;96260.00;5015937;28;20037;-53
2021/05/26 05:05:59;;;;;;;3.00;2.47;;;;;;;5.25;80.18;96255.91;5016492;28;20034;-51
2021/05/26 05:08:25;;;;;;;3.63;2.50;;;;;;;5.17;80.71;96256.38;5011130;28;20112;-51
2021/05/26 05:10:53;;;;;;;2.65;2.45;;;;;;;5.23;81.26;96255.16;5008840;28;20030;-54
2021/05/26 05:13:19;;;;;;;6.65;2.63;;;;;;;5.32;80.75;96249.34;5010892;28;20390;-52
2021/05/26 05:15:44;;;;;;;4.70;2.47;;;;;;;5.48;80.91;96251.84;5016066;28;20041;-54
2021/05/26 05:18:11;;;;;;;2.85;2.58;;;;;;;5.66;80.28;96249.84;5015914;28;20029;-52
2021/05/26 05:20:37;;;;;;;3.70;2.72;;;;;;;5.86;79.26;96252.97;5002637;28;20537;-53
2021/05/26 05:23:02;;;;;;;3.20;2.90;;;;;;;6.06;78.80;96248.22;5009704;28;20030;-53
2021/05/26 05:25:28;;;;;;;5.53;2.60;;;;;;;6.26;77.59;96246.94;5009672;28;20021;-54
2021/05/26 05:27:54;;;;;;;5.82;2.25;;;;;;;6.42;76.98;96257.19;5014330;28;20121;-52
2021/05/26 05:30:20;;;;;;;2.58;2.35;;;;;;;6.56;75.47;96257.13;5008461;28;20490;-54
2021/05/26 05:32:45;;;;;;;2.60;2.17;;;;;;;6.63;74.37;96251.47;5010930;28;20052;-54
2021/05/26 05:35:11;;;;;;;4.78;2.30;;;;;;;6.69;74.38;96251.06;5013980;28;20485;-52
2021/05/26 05:37:37;;;;;;;3.67;2.10;;;;;;;6.83;74.28;96248.34;5009258;28;20026;-53
2021/05/26 05:40:03;;;;;;;4.45;2.08;;;;;;;7.02;73.36;96244.47;4999467;28;20036;-54
2021/05/26 05:42:28;;;;;;;2.60;2.20;;;;;;;7.14;72.37;96240.16;5013511;28;20549;-54
2021/05/26 05:44:55;;;;;;;3.30;2.17;;;;;;;7.33;70.82;96238.88;5009260;28;20092;-51
2021/05/26 05:47:21;;;;;;;3.83;2.13;;;;;;;7.38;70.64;96239.38;5003378;28;20042;-55
2021/05/26 05:49:47;;;;;;;3.45;2.40;;;;;;;7.52;71.21;96243.63;5000137;28;20023;-52
2021/05/26 05:52:13;;;;;;;3.08;2.25;;;;;;;7.68;70.25;96238.13;5002060;28;20513;-56
2021/05/26 05:54:39;;;;;;;3.80;1.80;;;;;;;7.88;69.90;96234.88;5002840;28;20053;-55
2021/05/26 05:57:06;;;;;;;2.83;2.17;;;;;;;8.11;68.47;96234.16;5006200;28;20637;-54
2021/05/26 05:59:32;;;;;;;6.18;2.28;;;;;;;8.37;68.13;96236.63;5007253;28;20010;-57
2021/05/26 06:01:58;;;;;;;3.63;2.38;;;;;;;8.76;67.60;96234.59;5005392;28;20026;-58
2021/05/26 06:04:24;;;;;;;4.40;2.25;;;;;;;9.07;66.49;96234.84;5017603;28;20056;-54
2021/05/26 06:06:49;;;;;;;1.63;1.52;;;;;;;9.41;64.71;96229.59;5013577;28;20430;-56
2021/05/26 06:09:15;;;;;;;2.00;1.80;;;;;;;9.88;62.41;96228.53;5015437;28;20026;-55
2021/05/26 06:11:41;;;;;;;2.67;1.75;;;;;;;10.36;61.26;96226.44;5002055;28;20029;-58
2021/05/26 06:14:07;;;;;;;4.15;1.70;;;;;;;10.95;58.98;96224.19;4999783;28;20033;-58
2021/05/26 06:16:37;;;;;;;3.40;1.63;;;;;;;11.56;56.20;96233.84;5007885;28;20464;-57
2021/05/26 06:19:04;;;;;;;3.13;1.80;;;;;;;12.01;54.71;96227.28;5014310;28;20097;-56
2021/05/26 06:21:30;;;;;;;4.32;1.40;;;;;;;12.61;54.52;96228.94;5001257;28;20164;-56
2021/05/26 06:23:56;;;;;;;2.17;1.60;;;;;;;13.25;52.08;96235.44;5017616;28;20029;-57
2021/05/26 06:26:22;;;;;;;1.67;1.23;;;;;;;13.61;52.57;96230.31;5007227;28;20076;-58
2021/05/26 06:28:47;;;;;;;2.25;1.20;;;;;;;13.95;49.64;96226.19;5022372;28;20457;-57
2021/05/26 06:31:13;;;;;;;1.23;1.20;;;;;;;14.15;48.15;96224.22;5015448;28;20028;-57
2021/05/26 06:33:42;;;;;;;1.27;1.17;;;;;;;14.78;46.99;96226.91;5016043;28;20025;-58
2021/05/26 06:36:08;;;;;;;1.20;1.20;;;;;;;15.04;45.94;96224.25;5017774;28;20026;-58
2021/05/26 06:38:33;;;;;;;1.20;1.10;;;;;;;15.33;44.04;96229.22;5014220;28;20038;-57
2021/05/26 06:40:59;;;;;;;3.13;1.55;;;;;;;15.36;43.53;96224.59;5017110;28;20022;-58
2021/05/26 06:43:24;;;;;;;1.33;1.10;;;;;;;15.27;44.50;96221.91;5015918;28;20086;-58
2021/05/26 06:45:50;;;;;;;2.90;1.60;;;;;;;16.13;41.84;96221.84;5011196;28;20559;-59
2021/05/26 06:48:15;;;;;;;2.78;1.30;;;;;;;16.74;41.60;96224.19;5030730;28;20463;-60
2021/05/26 06:50:41;;;;;;;1.10;1.10;;;;;;;16.90;40.48;96228.66;5012907;28;20029;-57
2021/05/26 06:53:07;;;;;;;1.90;1.40;;;;;;;17.31;39.46;96224.28;5012184;28;20030;-60
2021/05/26 06:55:32;;;;;;;2.30;1.30;;;;;;;17.15;38.80;96219.84;5018283;28;20026;-57
2021/05/26 06:57:58;;;;;;;1.15;1.05;;;;;;;16.78;39.18;96219.38;5016765;28;20022;-57
2021/05/26 07:00:23;;;;;;;4.28;1.30;;;;;;;17.22;39.99;96222.66;5016004;28;20022;-57
2021/05/26 07:02:49;;;;;;;1.25;1.08;;;;;;;17.39;38.36;96216.28;5015576;28;20081;-57
2021/05/26 07:05:14;;;;;;;1.30;1.20;;;;;;;17.29;38.20;96215.63;5016271;28;20029;-57
2021/05/26 07:07:40;;;;;;;2.53;1.27;;;;;;;17.94;38.27;96220.88;5015203;28;20522;-57
2021/05/26 07:10:06;;;;;;;2.08;1.33;;;;;;;17.59;37.16;96218.53;5021392;28;20137;-59
2021/05/26 07:12:32;;;;;;;3.08;1.20;;;;;;;17.95;38.74;96218.00;5019163;28;20049;-58
2021/05/26 07:14:58;;;;;;;2.10;1.42;;;;;;;18.18;36.04;96219.91;5019143;28;20030;-57
2021/05/26 07:17:23;;;;;;;1.95;1.40;;;;;;;17.46;37.35;96227.91;5012026;28;20023;-58
2021/05/26 07:19:50;;;;;;;1.15;1.10;;;;;;;18.41;36.68;96219.06;5017016;28;20072;-59
2021/05/26 07:22:16;;;;;;;1.48;1.33;;;;;;;17.90;36.99;96209.72;5018942;28;20036;-59
2021/05/26 07:24:41;;;;;;;1.40;1.30;;;;;;;18.87;32.02;96205.66;5014581;28;20069;-59
2021/05/26 07:27:07;;;;;;;1.23;1.20;;;;;;;18.58;31.53;96207.25;5008002;28;20880;-59
2021/05/26 07:29:32;;;;;;;2.17;1.33;;;;;;;18.51;31.59;96213.50;5014252;28;20033;-59
2021/05/26 07:31:59;;;;;;;1.33;1.23;;;;;;;18.08;31.54;96206.00;5012279;28;20018;-59
2021/05/26 07:34:24;;;;;;;1.48;1.20;;;;;;;18.14;32.94;96207.94;5008382;28;20093;-59
2021/05/26 07:36:52;;;;;;;2.17;1.52;;;;;;;17.89;33.38;96200.06;5011930;28;20135;-60
2021/05/26 07:39:19;;;;;;;1.70;1.33;;;;;;;17.94;33.47;96202.22;5016460;28;20014;-59
2021/05/26 07:41:44;;;;;;;3.40;1.40;;;;;;;17.33;34.15;96196.50;5019099;28;20062;-60
2021/05/26 07:44:10;;;;;;;2.35;1.70;;;;;;;18.02;34.18;96195.03;5017717;28;20479;-60
2021/05/26 07:46:35;;;;;;;2.10;1.17;;;;;;;18.88;30.96;96188.66;5011674;28;20069;-57
2021/05/26 07:49:01;;;;;;;1.88;1.38;;;;;;;18.52;32.96;96186.66;5016301;28;20017;-58
2021/05/26 07:51:29;;;;;;;1.30;1.20;;;;;;;18.84;30.92;96187.34;5012666;28;20483;-59
2021/05/26 07:53:56;;;;;;;4.78;2.35;;;;;;;18.23;32.94;96187.41;5003533;28;20034;-59
2021/05/26 07:56:21;;;;;;;3.42;1.38;;;;;;;18.15;30.90;96181.13;5006667;28;20034;-58
2021/05/26 07:58:47;;;;;;;1.70;1.50;;;;;;;18.70;31.17;96174.84;5004190;28;20034;-58
2021/05/26 08:01:13;;;;;;;2.80;1.15;;;;;;;18.69;31.04;96165.19;5017745;28;20033;-58
2021/05/26 08:03:39;;;;;;;2.00;1.38;;;;;;;18.73;31.38;96169.97;5017914;28;20056;-58
2021/05/26 08:06:04;;;;;;;3.42;1.50;;;;;;;19.09;30.28;96162.31;5003531;28;20030;-59
2021/05/26 08:08:30;;;;;;;1.88;1.40;;;;;;;18.57;31.36;96160.28;5008605;28;20502;-57
2021/05/26 08:10:56;;;;;;;4.85;2.08;;;;;;;18.45;31.96;96162.56;5018389;28;20443;-58
2021/05/26 08:13:22;;;;;;;4.55;2.00;;;;;;;18.44;30.84;96160.06;5018002;28;20022;-59
2021/05/26 08:15:48;;;;;;;2.45;1.63;;;;;;;18.99;29.46;96151.91;5017787;28;20031;-58
2021/05/26 08:18:13;;;;;;;4.63;1.85;;;;;;;18.59;31.94;96157.44;5012456;28;20025;-59
2021/05/26 08:20:40;;;;;;;2.40;1.45;;;;;;;19.44;29.11;96155.38;5016181;28;20030;-58
2021/05/26 08:23:06;;;;;;;1.17;1.17;;;;;;;18.90;30.86;96146.63;5014188;28;20520;-58
2021/05/26 08:25:31;;;;;;;3.33;1.23;;;;;;;19.07;30.47;96149.13;4999084;28;20023;-58
2021/05/26 08:27:57;;;;;;;1.05;1.05;;;;;;;19.25;29.77;96145.28;5000909;28;20113;-59
2021/05/26 08:30:23;;;;;;;1.30;1.20;;;;;;;18.99;29.86;96135.91;4999039;28;20387;-58
2021/05/26 08:32:48;;;;;;;2.92;1.35;;;;;;;19.98;28.44;96137.28;5015938;28;20022;-59
2021/05/26 08:35:14;;;;;;;3.53;1.88;;;;;;;19.54;30.51;96132.88;5013065;28;20036;-58
2021/05/26 08:37:40;;;;;;;8.48;1.92;;;;;;;19.87;29.26;96135.91;5010623;28;20026;-58
2021/05/26 08:40:06;;;;;;;0.90;0.90;;;;;;;20.11;27.78;96122.41;5014200;28;20022;-59
2021/05/26 08:42:32;;;;;;;3.70;1.67;;;;;;;19.92;27.63;96134.56;5013765;28;20018;-58
2021/05/26 08:44:58;;;;;;;4.18;1.48;;;;;;;18.92;30.80;96119.75;5005729;28;20037;-58
2021/05/26 08:47:26;;;;;;;1.27;1.17;;;;;;;19.01;30.96;96117.88;5007247;28;20085;-57
2021/05/26 08:49:52;;;;;;;1.00;1.00;;;;;;;19.30;30.48;96119.69;5009940;28;20034;-58
2021/05/26 08:52:20;;;;;;;1.55;1.20;;;;;;;18.68;31.44;96103.03;5009326;28;20046;-59
2021/05/26 08:54:47;;;;;;;1.38;0.85;;;;;;;18.95;33.13;96099.91;5013335;28;20037;-59
2021/05/26 08:57:16;;;;;;;1.10;1.00;;;;;;;19.69;30.81;96098.16;5009818;28;20041;-58
2021/05/26 08:59:42;;;;;;;1.27;1.10;;;;;;;19.89;30.71;96101.00;5014942;28;20080;-59
2021/05/26 09:02:12;;;;;;;4.45;1.10;;;;;;;20.51;30.80;96097.84;5011601;28;20034;-59
2021/05/26 09:04:38;;;;;;;1.00;1.00;;;;;;;20.50;29.24;96099.69;5002934;28;20113;-59
2021/05/26 09:07:06;;;;;;;1.70;1.50;;;;;;;20.87;29.73;96089.66;5013363;28;20033;-59
2021/05/26 09:09:46;;;;;;;2.20;1.40;;;;;;;21.15;27.77;96091.47;5007538;28;20054;-59
2021/05/26 09:12:13;;;;;;;3.08;1.15;;;;;;;21.24;28.14;96089.44;5009361;28;20033;-59
2021/05/26 09:14:39;;;;;;;1.52;1.38;;;;;;;21.72;29.67;96085.91;5016617;28;20036;-59
2021/05/26 09:17:09;;;;;;;2.65;1.58;;;;;;;21.97;27.08;96082.63;5006317;28;20703;-59
2021/05/26 09:19:35;;;;;;;1.58;0.90;;;;;;;21.37;28.62;96087.84;5013120;28;20038;-58
2021/05/26 09:22:09;;;;;;;1.42;1.10;;;;;;;21.73;28.88;96079.50;5007872;28;20026;-59
2021/05/26 09:24:35;;;;;;;2.45;1.20;;;;;;;22.15;26.51;96076.69;5004060;28;20038;-59
2021/05/26 09:27:02;;;;;;;0.90;0.90;;;;;;;21.54;28.00;96077.56;5011629;28;20057;-59
2021/05/26 09:29:33;;;;;;;1.77;0.98;;;;;;;21.58;27.99;96074.28;5007052;28;20030;-58
2021/05/26 09:32:16;;;;;;;1.02;0.90;;;;;;;21.81;29.23;96066.97;5010491;28;20037;-59
2021/05/26 09:34:47;;;;;;;1.40;0.98;;;;;;;21.94;27.14;96069.66;5015525;28;20090;-60
2021/05/26 09:37:25;;;;;;;0.90;0.90;;;;;;;21.94;25.48;96063.47;5020700;28;20077;-59
2021/05/26 09:40:01;;;;;;;1.25;1.00;;;;;;;22.82;24.74;96061.59;5004912;28;20022;-59
2021/05/26 09:42:36;;;;;;;1.10;0.93;;;;;;;23.00;22.76;96058.22;5006845;28;20052;-59
2021/05/26 09:45:01;;;;;;;;;;;;;;;21.99;25.93;96056.44;5016880;28;20061;-59
2021/05/26 09:47:36;;;;;;;1.70;1.00;;;;;;;21.28;28.14;96063.91;5014228;28;19914;-59
2021/05/26 09:50:37;;;;;;;3.65;1.17;;;;;;;21.25;27.74;96067.00;5005050;28;20061;-59
2021/05/26 09:53:19;;;;;;;1.25;1.10;;;;;;;21.15;27.60;96063.84;5002570;28;20022;-58
2021/05/26 09:55:46;;;;;;;2.92;1.55;;;;;;;21.96;25.56;96056.88;5004697;28;20337;-59
2021/05/26 09:58:13;;;;;;;5.25;1.98;;;;;;;21.89;27.20;96048.84;5010882;28;20478;-59
2021/05/26 10:00:41;;;;;;;5.88;1.95;;;;;;;20.93;27.68;96058.63;5014016;28;20453;-59
2021/05/26 10:03:07;;;;;;;4.47;1.80;;;;;;;21.24;27.23;96056.47;5012881;28;20022;-59
2021/05/26 10:05:34;;;;;;;2.60;1.60;;;;;;;21.82;26.31;96055.22;5011076;28;20609;-59
2021/05/26 10:08:01;;;;;;;3.50;1.50;;;;;;;21.99;24.82;96044.91;5017769;28;20022;-60
2021/05/26 10:10:31;;;;;;;1.60;1.50;;;;;;;21.82;25.25;96047.19;5020762;28;20022;-59
2021/05/26 10:13:00;;;;;;;2.25;1.70;;;;;;;22.46;22.97;96053.78;5021778;28;20396;-59
2021/05/26 10:15:27;;;;;;;2.58;1.55;;;;;;;21.28;28.22;96044.34;5019006;28;20061;-59
2021/05/26 10:17:55;;;;;;;7.80;1.90;;;;;;;22.30;25.76;96040.78;5018389;28;20441;-59
2021/05/26 10:20:22;;;;;;;5.15;1.95;;;;;;;;;;5020179;28;20026;-59
2021/05/26 10:22:50;;;;;;;2.00;1.80;;;;;;;21.68;25.38;96028.41;5018528;28;20030;-60
2021/05/26 10:25:16;;;;;;;4.40;1.60;;;;;;;21.69;26.34;96031.91;5003785;28;20035;-59
2021/05/26 10:27:53;;;;;;;5.05;1.90;;;;;;;23.07;24.59;96021.41;5013591;28;20030;-59
2021/05/26 10:30:26;;;;;;;3.25;1.48;;;;;;;22.32;25.75;96022.63;5017169;28;20048;-59
2021/05/26 10:32:59;;;;;;;6.53;1.63;;;;;;;22.31;26.30;96020.97;5016441;28;20052;-59
2021/05/26 10:35:26;;;;;;;1.73;1.50;;;;;;;23.46;22.96;96014.22;5016725;28;20036;-59
2021/05/26 10:38:06;;;;;;;2.05;1.50;;;;;;;22.27;26.31;96017.91;5023412;28;20056;-59
2021/05/26 10:40:41;;;;;;;3.72;1.60;;;;;;;23.25;24.00;96012.72;5019206;28;20022;-59
2021/05/26 10:43:16;;;;;;;2.95;1.60;;;;;;;22.93;24.73;96009.09;5019339;28;20498;-58
2021/05/26 10:45:42;;;;;;;;;;;;;;;22.93;24.24;96003.72;5020048;28;20117;-59
2021/05/26 10:48:07;;;;;;;5.45;1.60;;;;;;;22.68;25.20;96004.44;5019712;28;20400;-59
2021/05/26 10:50:49;;;;;;;2.53;1.50;;;;;;;22.78;23.88;96004.81;5018033;28;20029;-59
2021/05/26 10:53:16;;;;;;;3.92;1.50;;;;;;;21.86;26.02;95997.50;5003061;28;20038;-59
2021/05/26 10:56:00;;;;;;;3.05;1.30;;;;;;;22.61;25.56;96001.78;5016133;28;20045;-59
2021/05/26 10:58:35;;;;;;;2.08;1.30;;;;;;;22.74;24.75;95995.53;5022692;28;20112;-58
2021/05/26 11:01:00;;;;;;;4.00;1.30;;;;;;;23.00;23.84;95991.09;5013080;28;20394;-58
2021/05/26 11:03:29;;;;;;;1.10;1.00;;;;;;;22.80;24.46;95992.00;5019235;28;20018;-58
2021/05/26 11:06:02;;;;;;;1.27;0.98;;;;;;;23.11;23.15;95993.13;5019568;28;20486;-59
2021/05/26 11:08:47;;;;;;;1.13;1.02;;;;;;;22.88;23.03;95978.34;5020517;28;20044;-59
2021/05/26 11:11:22;;;;;;;4.20;1.50;;;;;;;22.89;23.57;95977.31;5014446;28;20393;-59
2021/05/26 11:14:05;;;;;;;;;;;;;;;22.52;23.07;95981.56;5019814;28;20034;-59
2021/05/26 11:16:37;;;;;;;3.08;1.10;;;;;;;22.77;24.11;95973.66;5014466;28;19909;-58
2021/05/26 11:19:14;;;;;;;2.38;1.23;;;;;;;22.67;23.31;95973.28;5018450;28;20034;-59
2021/05/26 11:21:41;;;;;;;1.35;0.90;;;;;;;22.86;23.50;95964.31;5020278;28;20021;-59
2021/05/26 11:24:07;;;;;;;0.82;0.80;;;;;;;23.02;21.91;95967.53;5013744;28;20030;-59
2021/05/26 11:26:37;;;;;;;1.13;1.08;;;;;;;23.00;21.92;95969.63;5004828;28;20037;-59
2021/05/26 11:29:05;;;;;;;0.90;0.90;;;;;;;23.18;23.87;95963.53;5016563;28;20033;-59
2021/05/26 11:31:31;;;;;;;1.17;1.00;;;;;;;23.34;22.41;95959.56;5018635;28;20030;-59
2021/05/26 11:33:58;;;;;;;1.67;1.10;;;;;;;23.27;22.44;95964.97;5019059;28;20486;-58
2021/05/26 11:36:44;;;;;;;2.83;0.98;;;;;;;23.39;22.29;95958.91;5019545;28;20044;-59
2021/05/26 11:39:26;;;;;;;1.15;1.00;;;;;;;22.96;23.37;95955.00;5014632;28;20083;-59